Time;durP1;ratioP1;P1;durP2;ratioP2;P2;SDS_P1;SDS_P2;PMS_P1;PMS_P2;Temp;Humidity;BMP_temperature;BMP_pressure;BME280_temperature;BME280_humidity;BME280_pressure;Samples;Min_cycle;Max_cycle;Signal;HPM_P1;HPM_P2
2022/08/13 00:01:43;;;;;;;;;;;;;;;20.30;87.07;99294.16;5031898;28;976;-66
2022/08/13 00:04:09;;;;;;;;;;;;;;;20.28;86.88;99296.69;5033021;28;1186;-65
2022/08/13 00:09:05;;;;;;;;;;;;;;;20.31;86.31;99275.28;5033136;28;749;-66
2022/08/13 00:14:17;;;;;;;;;;;;;;;20.44;84.97;99286.25;5033103;28;697;-66
2022/08/13 00:16:44;;;;;;;;;;;;;;;20.42;84.75;99281.13;5032861;28;842;-66
2022/08/13 00:19:10;;;;;;;;;;;;;;;20.43;84.32;99277.06;5032957;28;832;-66
2022/08/13 00:21:37;;;;;;;;;;;;;;;20.48;83.87;99275.59;5032810;28;844;-66
2022/08/13 00:24:06;;;;;;;;;;;;;;;20.56;83.15;99276.75;5015130;28;1220;-66
2022/08/13 00:26:33;;;;;;;;;;;;;;;20.64;82.35;99274.38;5032853;28;820;-66
2022/08/13 00:29:00;;;;;;;;;;;;;;;20.67;82.14;99267.78;5032140;28;855;-66
2022/08/13 00:31:28;;;;;;;;;;;;;;;20.67;81.69;99273.41;5032713;28;1894;-66
2022/08/13 00:33:58;;;;;;;;;;;;;;;20.67;81.29;99274.16;5032649;28;860;-66
2022/08/13 00:36:26;;;;;;;;;;;;;;;20.69;81.28;99270.88;5032625;28;926;-66
2022/08/13 00:38:53;;;;;;;;;;;;;;;20.68;81.06;99280.59;5032594;28;836;-66
2022/08/13 00:41:39;;;;;;;;;;;;;;;20.64;80.91;99277.97;5032590;28;927;-66
2022/08/13 00:44:08;;;;;;;;;;;;;;;20.62;80.89;99276.91;5032454;28;880;-66
2022/08/13 00:46:35;;;;;;;;;;;;;;;20.59;80.85;99273.03;5014634;28;1232;-66
2022/08/13 00:49:04;;;;;;;;;;;;;;;20.53;81.00;99272.91;5032316;28;816;-66
2022/08/13 00:51:32;;;;;;;;;;;;;;;20.48;80.94;99275.59;5032302;28;1882;-66
2022/08/13 00:54:00;;;;;;;;;;;;;;;20.45;81.14;99273.78;5032184;28;884;-66
2022/08/13 00:56:27;;;;;;;;;;;;;;;20.41;81.21;99279.56;5032580;28;883;-66
2022/08/13 00:58:56;;;;;;;;;;;;;;;20.38;81.30;99277.75;5032179;28;840;-66
2022/08/13 01:01:24;;;;;;;;;;;;;;;20.37;81.25;99276.94;5032425;28;956;-66
2022/08/13 01:03:51;;;;;;;;;;;;;;;20.35;81.18;99282.25;5031840;28;1279;-66
2022/08/13 01:06:21;;;;;;;;;;;;;;;20.30;81.38;99279.38;5032043;28;832;-65
2022/08/13 01:08:49;;;;;;;;;;;;;;;20.24;81.63;99276.44;5014796;28;1205;-66
2022/08/13 01:11:17;;;;;;;;;;;;;;;20.22;81.87;99278.97;5014270;28;1974;-66
2022/08/13 01:25:54;;;;;;;;;;;;;;;20.07;83.06;99276.13;5032077;28;653;-66
2022/08/13 01:28:27;;;;;;;;;;;;;;;20.07;83.19;99281.75;5031693;28;883;-66
2022/08/13 01:30:55;;;;;;;;;;;;;;;20.04;83.44;99281.94;5013923;28;1965;-67
2022/08/13 01:33:22;;;;;;;;;;;;;;;20.00;83.68;99276.53;5031949;28;815;-66
2022/08/13 01:50:47;;;;;;;;;;;;;;;19.87;84.25;99276.00;5031423;28;1964;-66
2022/08/13 01:53:15;;;;;;;;;;;;;;;19.86;84.33;99280.06;5031804;28;781;-66
2022/08/13 01:55:43;;;;;;;;;;;;;;;19.82;84.38;99271.03;5031728;28;824;-66
2022/08/13 01:58:17;;;;;;;;;;;;;;;19.77;84.64;99278.88;5031507;28;800;-66
2022/08/13 02:00:45;;;;;;;;;;;;;;;19.79;84.62;99278.38;5031486;28;944;-66
2022/08/13 02:03:16;;;;;;;;;;;;;;;19.76;84.53;99277.31;5013364;28;1365;-67
2022/08/13 02:05:42;;;;;;;;;;;;;;;19.73;84.72;99272.66;5031638;28;835;-66
2022/08/13 02:08:11;;;;;;;;;;;;;;;19.71;84.78;99275.16;5031275;28;879;-66
2022/08/13 02:22:49;;;;;;;;;;;;;;;19.66;84.48;99269.44;5031546;28;618;-66
2022/08/13 02:25:17;;;;;;;;;;;;;;;19.64;84.63;99278.31;5031173;28;817;-66
2022/08/13 02:27:44;;;;;;;;;;;;;;;19.63;84.67;99273.97;5031076;28;862;-65
2022/08/13 02:42:22;;;;;;;;;;;;;;;19.48;85.43;99273.91;5031359;28;626;-65
2022/08/13 02:44:51;;;;;;;;;;;;;;;19.48;85.51;99273.91;5030855;28;820;-66
2022/08/13 02:47:20;;;;;;;;;;;;;;;19.49;85.50;99274.69;5031023;28;836;-66
2022/08/13 02:50:10;;;;;;;;;;;;;;;19.52;85.52;99276.50;5030871;28;1893;-65
2022/08/13 02:52:39;;;;;;;;;;;;;;;19.50;85.55;99270.59;5033586;28;855;-66
2022/08/13 02:58:08;;;;;;;;;;;;;;;19.40;85.92;99274.75;5034824;28;630;-65
2022/08/13 03:13:21;;;;;;;;;;;;;;;19.40;86.18;99269.91;5034155;28;642;-66
2022/08/13 03:15:52;;;;;;;;;;;;;;;19.38;86.16;99275.97;5034106;28;915;-66
2022/08/13 03:18:19;;;;;;;;;;;;;;;19.36;86.24;99277.72;5034248;28;947;-66
2022/08/13 03:20:45;;;;;;;;;;;;;;;19.35;86.33;99279.75;5034239;28;835;-66
2022/08/13 03:23:12;;;;;;;;;;;;;;;19.38;86.30;99278.00;5034320;28;816;-66
2022/08/13 03:25:38;;;;;;;;;;;;;;;19.41;86.13;99277.06;5034276;28;816;-65
2022/08/13 03:28:06;;;;;;;;;;;;;;;19.44;86.01;99272.50;5034025;28;911;-65
2022/08/13 03:30:35;;;;;;;;;;;;;;;19.45;85.88;99268.47;5034095;28;1902;-65
2022/08/13 03:33:05;;;;;;;;;;;;;;;19.46;85.86;99270.00;5033854;28;891;-65
2022/08/13 03:35:32;;;;;;;;;;;;;;;19.47;85.79;99272.34;5033704;28;840;-66
2022/08/13 03:37:59;;;;;;;;;;;;;;;19.49;85.81;99272.66;5015919;28;1331;-66
2022/08/13 03:41:00;;;;;;;;;;;;;;;19.55;85.58;99269.97;5033617;28;837;-66
2022/08/13 03:55:27;;;;;;;;;;;;;;;19.67;85.02;99270.97;5034091;28;619;-65
2022/08/13 03:57:55;;;;;;;;;;;;;;;19.72;85.00;99267.56;5015589;28;1374;-65
2022/08/13 04:00:29;;;;;;;;;;;;;;;19.78;84.66;99268.44;5033350;28;936;-66
2022/08/13 04:02:56;;;;;;;;;;;;;;;19.84;84.35;99260.91;5032546;28;841;-66
2022/08/13 04:05:24;;;;;;;;;;;;;;;19.90;84.05;99261.00;5033167;28;824;-65
2022/08/13 04:07:51;;;;;;;;;;;;;;;19.95;83.72;99258.31;5033180;28;852;-66
2022/08/13 04:10:22;;;;;;;;;;;;;;;20.00;83.53;99254.06;5033171;28;1893;-66
2022/08/13 04:12:49;;;;;;;;;;;;;;;20.07;83.49;99264.91;5032815;28;1486;-65
2022/08/13 04:15:16;;;;;;;;;;;;;;;20.12;83.23;99267.06;5033028;28;904;-65
2022/08/13 04:17:42;;;;;;;;;;;;;;;20.19;82.87;99261.06;5033044;28;586;-65
2022/08/13 04:20:09;;;;;;;;;;;;;;;20.28;82.40;99263.00;5032920;28;884;-65
2022/08/13 04:23:08;;;;;;;;;;;;;;;20.37;82.25;99267.75;5032922;28;899;-65
2022/08/13 04:29:04;;;;;;;;;;;;;;;20.53;81.15;99263.72;5033138;28;662;-65
2022/08/13 04:31:31;;;;;;;;;;;;;;;20.65;80.77;99270.31;5032837;28;1914;-65
2022/08/13 04:33:57;;;;;;;;;;;;;;;20.83;79.94;99263.72;5032675;28;855;-64
2022/08/13 04:36:23;;;;;;;;;;;;;;;21.02;79.28;99273.47;5032679;28;808;-65
2022/08/13 04:38:57;;;;;;;;;;;;;;;21.14;78.77;99271.59;5032628;28;916;-65
2022/08/13 04:41:23;;;;;;;;;;;;;;;21.18;78.31;99275.72;5032511;28;863;-65
2022/08/13 04:43:50;;;;;;;;;;;;;;;21.24;78.09;99275.06;5032528;28;918;-65
2022/08/13 04:46:17;;;;;;;;;;;;;;;21.28;77.79;99267.19;5014722;28;1272;-65
2022/08/13 04:48:44;;;;;;;;;;;;;;;21.35;77.69;99275.97;5032691;28;879;-65
2022/08/13 04:51:17;;;;;;;;;;;;;;;21.44;77.39;99274.34;5014577;28;1945;-65
2022/08/13 04:56:46;;;;;;;;;;;;;;;21.60;76.59;99259.72;5032333;28;623;-65
2022/08/13 04:59:13;;;;;;;;;;;;;;;21.66;76.63;99268.22;5032253;28;881;-65
2022/08/13 05:04:42;;;;;;;;;;;;;;;21.71;76.08;99247.84;5032448;28;685;-64
2022/08/13 05:07:09;;;;;;;;;;;;;;;21.94;75.35;99265.75;5032560;28;883;-64
2022/08/13 05:09:35;;;;;;;;;;;;;;;22.02;74.82;99264.84;5032431;28;1886;-64
2022/08/13 05:12:04;;;;;;;;;;;;;;;22.10;74.58;99275.66;5031866;28;1472;-65
2022/08/13 05:14:31;;;;;;;;;;;;;;;22.21;74.45;99270.13;5031943;28;1060;-64
2022/08/13 05:16:58;;;;;;;;;;;;;;;22.43;73.82;99259.13;5032091;28;861;-65
2022/08/13 05:19:24;;;;;;;;;;;;;;;22.71;73.00;99263.47;5032100;28;864;-64
2022/08/13 05:24:56;;;;;;;;;;;;;;;22.94;71.03;99259.56;5031875;28;619;-64
2022/08/13 05:27:22;;;;;;;;;;;;;;;23.01;70.66;99259.13;5031823;28;827;-64
2022/08/13 05:29:50;;;;;;;;;;;;;;;23.17;70.37;99257.69;5031638;28;1976;-64
2022/08/13 05:32:21;;;;;;;;;;;;;;;23.33;70.17;99258.28;5031736;28;808;-65
2022/08/13 05:34:52;;;;;;;;;;;;;;;23.46;69.69;99255.03;5014170;28;1251;-64
2022/08/13 05:37:19;;;;;;;;;;;;;;;23.64;69.06;99258.19;5031608;28;882;-64
2022/08/13 05:39:46;;;;;;;;;;;;;;;23.87;68.02;99258.28;5031678;28;922;-64
2022/08/13 05:42:13;;;;;;;;;;;;;;;24.05;67.28;99257.09;5031516;28;840;-62
2022/08/13 05:44:40;;;;;;;;;;;;;;;24.35;66.27;99251.75;5031664;28;915;-64
2022/08/13 05:47:08;;;;;;;;;;;;;;;24.64;64.74;99253.34;5013891;28;1165;-64
2022/08/13 05:49:35;;;;;;;;;;;;;;;24.69;64.50;99256.66;5031385;28;1984;-65
2022/08/13 05:52:02;;;;;;;;;;;;;;;24.78;64.10;99251.53;5031491;28;914;-64
2022/08/13 05:54:31;;;;;;;;;;;;;;;25.11;62.63;99258.44;5031473;28;813;-62
2022/08/13 05:56:57;;;;;;;;;;;;;;;25.40;61.62;99254.28;5013687;28;1188;-64
2022/08/13 06:08:04;;;;;;;;;;;;;;;27.52;55.39;99251.78;5027009;28;1188;-61
2022/08/13 06:10:31;;;;;;;;;;;;;;;28.13;53.94;99232.44;5031256;28;1969;-61
2022/08/13 06:12:58;;;;;;;;;;;;;;;28.97;50.73;99252.31;5050249;28;1201;-61
2022/08/13 06:15:27;;;;;;;;;;;;;;;29.03;50.31;99256.59;5051275;28;895;-61
2022/08/13 06:17:53;;;;;;;;;;;;;;;29.26;49.78;99261.91;5051030;28;946;-61
2022/08/13 06:20:22;;;;;;;;;;;;;;;28.95;49.90;99258.53;5033234;28;1199;-61
2022/08/13 06:22:52;;;;;;;;;;;;;;;28.06;52.30;99250.88;5051026;28;844;-61
2022/08/13 06:25:19;;;;;;;;;;;;;;;28.16;52.17;99250.47;5051089;28;875;-62
2022/08/13 06:27:47;;;;;;;;;;;;;;;28.73;51.05;99241.88;5036251;28;1322;-61
2022/08/13 06:30:17;;;;;;;;;;;;;;;28.96;49.84;99247.94;5036981;28;1969;-61
2022/08/13 06:32:44;;;;;;;;;;;;;;;28.08;51.68;99248.25;5054893;28;807;-61
2022/08/13 06:35:10;;;;;;;;;;;;;;;27.53;53.43;99252.56;5054948;28;839;-61
2022/08/13 06:37:41;;;;;;;;;;;;;;;27.60;53.22;99244.22;5054822;28;855;-62
2022/08/13 06:40:10;;;;;;;;;;;;;;;27.77;53.28;99249.69;5054645;28;815;-61
2022/08/13 06:42:37;;;;;;;;;;;;;;;28.41;51.53;99251.13;5054723;28;868;-62
2022/08/13 06:45:04;;;;;;;;;;;;;;;28.79;49.99;99243.31;5054645;28;863;-61
2022/08/13 06:47:33;;;;;;;;;;;;;;;28.75;49.93;99244.94;5054639;28;831;-61
2022/08/13 06:50:02;;;;;;;;;;;;;;;29.00;49.37;99246.31;5054454;28;1948;-61
2022/08/13 06:52:29;;;;;;;;;;;;;;;29.36;48.62;99245.13;5055247;28;829;-60
2022/08/13 06:54:57;;;;;;;;;;;;;;;29.84;47.63;99243.91;5054823;28;789;-61
2022/08/13 06:57:24;;;;;;;;;;;;;;;30.30;46.00;99244.47;5054777;28;804;-61
2022/08/13 06:59:52;;;;;;;;;;;;;;;30.41;45.39;99240.59;5054961;28;844;-61
2022/08/13 07:02:18;;;;;;;;;;;;;;;30.58;45.16;99242.25;5054677;28;839;-61
2022/08/13 07:04:57;;;;;;;;;;;;;;;30.76;44.88;99244.13;5054635;28;812;-61
2022/08/13 07:07:24;;;;;;;;;;;;;;;30.68;44.51;99241.25;5054274;28;949;-61
2022/08/13 07:09:51;;;;;;;;;;;;;;;30.16;45.17;99245.81;5054000;28;1894;-61
2022/08/13 07:12:19;;;;;;;;;;;;;;;29.86;45.87;99229.91;5032794;28;1473;-62
2022/08/13 07:27:02;;;;;;;;;;;;;;;30.33;45.01;99219.81;5034322;28;633;-62
2022/08/13 07:29:28;;;;;;;;;;;;;;;31.35;43.07;99220.81;5034074;28;918;-61
2022/08/13 07:31:55;;;;;;;;;;;;;;;31.73;41.65;99220.28;5033815;28;1949;-61
2022/08/13 07:34:25;;;;;;;;;;;;;;;32.12;40.59;99209.75;5032585;28;1283;-61
2022/08/13 07:49:03;;;;;;;;;;;;;;;32.92;39.25;99185.78;5033902;28;615;-62
2022/08/13 08:00:59;;;;;;;;;;;;;;;33.70;36.07;99195.75;5033484;28;1203;-62
2022/08/13 08:03:33;;;;;;;;;;;;;;;33.21;36.72;99188.44;5033304;28;875;-62
2022/08/13 08:06:16;;;;;;;;;;;;;;;33.33;36.40;99190.31;5033608;28;875;-62
2022/08/13 08:08:42;;;;;;;;;;;;;;;33.69;35.36;99195.00;5033145;28;831;-62
2022/08/13 08:11:10;;;;;;;;;;;;;;;33.74;35.14;99187.53;5032821;28;1891;-63
2022/08/13 08:14:00;;;;;;;;;;;;;;;33.99;35.45;99178.97;5033342;28;804;-62
2022/08/13 08:16:44;;;;;;;;;;;;;;;34.29;34.14;99178.06;5032920;28;1344;-62
2022/08/13 08:19:12;;;;;;;;;;;;;;;34.05;33.74;99173.75;5033019;28;824;-62
2022/08/13 08:22:13;;;;;;;;;;;;;;;33.62;34.74;99174.97;5032859;28;1135;-62
2022/08/13 08:24:49;;;;;;;;;;;;;;;33.72;35.14;99173.00;5033226;28;1065;-62
2022/08/13 08:27:17;;;;;;;;;;;;;;;34.06;33.11;99174.56;5032858;28;863;-62
2022/08/13 08:29:45;;;;;;;;;;;;;;;34.16;33.33;99169.72;5032709;28;1918;-62
2022/08/13 08:32:12;;;;;;;;;;;;;;;34.28;32.73;99165.03;5032793;28;891;-62
2022/08/13 08:34:40;;;;;;;;;;;;;;;34.10;33.40;99164.19;5032695;28;871;-62
2022/08/13 08:43:10;;;;;;;;;;;;;;;34.99;32.40;99152.38;5032927;28;639;-63
2022/08/13 08:45:37;;;;;;;;;;;;;;;34.87;31.61;99154.25;5032517;28;902;-63
2022/08/13 08:48:04;;;;;;;;;;;;;;;34.45;31.72;99157.84;5032388;28;930;-63
2022/08/13 08:50:31;;;;;;;;;;;;;;;34.49;31.92;99161.06;5031913;28;1902;-62
2022/08/13 08:55:51;;;;;;;;;;;;;;;34.73;32.02;99150.94;5032456;28;626;-62
2022/08/13 08:58:22;;;;;;;;;;;;;;;34.44;32.60;99141.97;5014452;28;1244;-63
2022/08/13 09:00:50;;;;;;;;;;;;;;;34.85;31.82;99139.72;5032378;28;952;-62
2022/08/13 09:03:19;;;;;;;;;;;;;;;34.42;32.48;99148.31;5032039;28;896;-62
2022/08/13 09:05:48;;;;;;;;;;;;;;;33.84;33.18;99133.97;5032161;28;816;-62
2022/08/13 09:08:17;;;;;;;;;;;;;;;33.90;33.84;99125.91;5031941;28;926;-62
2022/08/13 09:10:46;;;;;;;;;;;;;;;33.28;33.97;99130.38;5014438;28;1957;-62
2022/08/13 09:13:19;;;;;;;;;;;;;;;31.63;37.26;99117.22;5032136;28;832;-62
2022/08/13 09:15:51;;;;;;;;;;;;;;;32.13;36.56;99126.31;5031774;28;1137;-63
2022/08/13 09:18:21;;;;;;;;;;;;;;;31.30;37.84;99124.66;5031903;28;848;-63
2022/08/13 09:20:49;;;;;;;;;;;;;;;30.53;39.58;99132.75;5031844;28;899;-63
2022/08/13 09:23:16;;;;;;;;;;;;;;;29.98;40.52;99127.88;5031784;28;844;-63
2022/08/13 09:25:51;;;;;;;;;;;;;;;30.68;39.79;99120.69;5014041;28;931;-63
2022/08/13 09:28:23;;;;;;;;;;;;;;;32.04;37.74;99106.09;5031774;28;910;-61
2022/08/13 09:30:54;;;;;;;;;;;;;;;32.73;35.18;99117.53;5031907;28;1934;-63
2022/08/13 10:05:32;;;;;;;;;;;;;;;34.32;31.31;99098.69;5030951;28;1149;-65
2022/08/13 10:08:03;;;;;;;;;;;;;;;34.35;31.01;99088.91;5015696;28;887;-64
2022/08/13 10:10:30;;;;;;;;;;;;;;;34.67;30.88;99090.91;5015560;28;1955;-64
2022/08/13 10:12:59;;;;;;;;;;;;;;;34.53;30.74;99083.97;5015673;28;820;-64
2022/08/13 10:15:27;;;;;;;;;;;;;;;34.21;31.30;99074.13;5015584;28;906;-63
2022/08/13 10:18:05;;;;;;;;;;;;;;;33.75;31.65;99080.16;5015775;28;851;-64
2022/08/13 10:20:36;;;;;;;;;;;;;;;34.08;31.36;99088.72;5015531;28;840;-65
2022/08/13 10:23:05;;;;;;;;;;;;;;;34.69;30.10;99081.72;5015373;28;1206;-65
2022/08/13 10:25:32;;;;;;;;;;;;;;;34.10;30.72;99083.16;5013980;28;1213;-65
2022/08/13 10:27:59;;;;;;;;;;;;;;;33.45;31.82;99073.22;5013971;28;1258;-65
2022/08/13 10:30:29;;;;;;;;;;;;;;;33.71;32.07;99068.34;5015165;28;1894;-65
2022/08/13 10:32:56;;;;;;;;;;;;;;;34.48;31.03;99070.59;5013857;28;1267;-64
2022/08/13 10:35:27;;;;;;;;;;;;;;;33.89;31.46;99080.66;5015198;28;890;-65
2022/08/13 10:37:56;;;;;;;;;;;;;;;32.94;33.52;99074.38;5015288;28;1139;-65
2022/08/13 10:40:27;;;;;;;;;;;;;;;33.14;34.32;99064.03;5015003;28;990;-65
2022/08/13 10:42:54;;;;;;;;;;;;;;;33.49;33.40;99065.00;5015109;28;792;-65
2022/08/13 10:45:23;;;;;;;;;;;;;;;33.65;33.09;99065.72;5014935;28;804;-65
2022/08/13 10:47:51;;;;;;;;;;;;;;;33.29;33.80;99063.22;5013593;28;1165;-66
2022/08/13 10:50:29;;;;;;;;;;;;;;;32.73;35.16;99066.81;5014839;28;1890;-66
2022/08/13 10:52:59;;;;;;;;;;;;;;;32.06;34.24;99069.88;5015252;28;926;-66
2022/08/13 10:55:27;;;;;;;;;;;;;;;31.77;35.29;99063.53;5013272;28;1590;-65
2022/08/13 11:04:08;;;;;;;;;;;;;;;35.41;30.27;99048.16;4992926;28;1181;-65
2022/08/13 11:06:35;;;;;;;;;;;;;;;35.97;30.24;99044.66;5005097;28;1327;-62
2022/08/13 11:09:03;;;;;;;;;;;;;;;36.24;29.62;99038.88;4996194;28;1316;-62
2022/08/13 11:11:30;;;;;;;;;;;;;;;35.63;30.13;99034.03;5012648;28;1922;-64
2022/08/13 11:13:56;;;;;;;;;;;;;;;35.29;30.08;99029.94;5012241;28;855;-65
2022/08/13 11:18:57;;;;;;;;;;;;;;;35.11;29.96;99029.94;5012317;28;710;-64
2022/08/13 11:21:24;;;;;;;;;;;;;;;35.88;29.13;99020.25;5012290;28;895;-64
2022/08/13 11:23:52;;;;;;;;;;;;;;;36.74;27.58;99026.06;5012270;28;891;-64
2022/08/13 11:26:19;;;;;;;;;;;;;;;36.92;27.50;99023.81;5012160;28;852;-63
2022/08/13 11:28:45;;;;;;;;;;;;;;;36.81;27.37;99013.66;5012186;28;828;-64
2022/08/13 11:31:12;;;;;;;;;;;;;;;36.49;27.38;99009.06;4995422;28;1935;-64
2022/08/13 11:33:40;;;;;;;;;;;;;;;36.41;27.60;99014.22;5012058;28;902;-64
2022/08/13 11:36:08;;;;;;;;;;;;;;;36.34;27.33;99008.00;5012004;28;836;-64
2022/08/13 11:38:35;;;;;;;;;;;;;;;36.62;27.01;99005.00;5011852;28;1326;-64
2022/08/13 11:41:02;;;;;;;;;;;;;;;36.81;26.78;99007.13;5011868;28;820;-64
2022/08/13 11:43:29;;;;;;;;;;;;;;;37.21;26.15;98994.22;4995380;28;1391;-63
2022/08/13 11:45:56;;;;;;;;;;;;;;;37.77;25.45;98993.91;5011716;28;1308;-63
2022/08/13 11:48:23;;;;;;;;;;;;;;;38.10;25.04;98990.41;4995316;28;1222;-64
2022/08/13 11:50:51;;;;;;;;;;;;;;;37.57;25.49;98991.09;5011627;28;1878;-64
2022/08/13 11:53:18;;;;;;;;;;;;;;;36.19;26.59;98993.91;5011730;28;894;-64
2022/08/13 11:55:44;;;;;;;;;;;;;;;34.79;28.49;99001.47;4995174;28;1193;-64
2022/08/13 11:58:11;;;;;;;;;;;;;;;33.81;29.83;98993.97;5011590;28;879;-66
2022/08/13 12:00:40;;;;;;;;;;;;;;;33.60;30.31;98986.47;5011424;28;926;-66
2022/08/13 12:03:07;;;;;;;;;;;;;;;33.14;31.17;98990.38;5011752;28;901;-65
2022/08/13 12:05:34;;;;;;;;;;;;;;;32.60;31.86;98983.31;5011254;28;1371;-65
2022/08/13 12:08:01;;;;;;;;;;;;;;;32.47;32.75;98981.41;5011240;28;1327;-64
2022/08/13 12:10:29;;;;;;;;;;;;;;;33.88;31.29;98978.81;5011273;28;2007;-65
2022/08/13 12:12:56;;;;;;;;;;;;;;;35.66;29.11;98976.19;5011309;28;902;-65
2022/08/13 12:15:23;;;;;;;;;;;;;;;37.39;26.86;98963.84;5011319;28;887;-65
2022/08/13 12:17:49;;;;;;;;;;;;;;;38.13;26.27;98968.97;5011153;28;931;-65
2022/08/13 12:20:18;;;;;;;;;;;;;;;38.48;25.69;98969.16;5011189;28;831;-65
2022/08/13 12:22:45;;;;;;;;;;;;;;;39.14;24.72;98962.66;4994678;28;888;-64
2022/08/13 12:25:12;;;;;;;;;;;;;;;39.53;23.96;98962.22;4993751;28;1281;-63
2022/08/13 12:27:39;;;;;;;;;;;;;;;39.43;23.68;98952.19;4994554;28;1185;-64
2022/08/13 12:30:07;;;;;;;;;;;;;;;38.67;23.45;98956.72;5010868;28;1949;-63
2022/08/13 12:32:33;;;;;;;;;;;;;;;38.19;24.25;98960.72;5010881;28;903;-63
2022/08/13 12:35:01;;;;;;;;;;;;;;;38.14;23.81;98950.31;5010892;28;879;-64
2022/08/13 12:37:27;;;;;;;;;;;;;;;38.40;23.66;98952.06;5011032;28;856;-64
2022/08/13 12:39:55;;;;;;;;;;;;;;;38.70;23.25;98949.69;5011047;28;816;-64
2022/08/13 12:42:23;;;;;;;;;;;;;;;38.86;23.09;98969.47;5010821;28;820;-64
2022/08/13 12:44:49;;;;;;;;;;;;;;;38.30;27.13;98960.06;5010635;28;946;-64
2022/08/13 12:47:16;;;;;;;;;;;;;;;37.22;28.14;98961.19;5010670;28;825;-64
2022/08/13 12:49:42;;;;;;;;;;;;;;;36.05;30.02;98958.28;5010534;28;883;-65
2022/08/13 12:52:09;;;;;;;;;;;;;;;34.87;33.45;98961.94;5010538;28;1886;-66
2022/08/13 12:55:18;;;;;;;;;;;;;;;34.03;35.84;98955.72;5010589;28;840;-66
2022/08/13 12:57:44;;;;;;;;;;;;;;;34.67;34.97;98956.06;5010373;28;1180;-66
2022/08/13 13:00:13;;;;;;;;;;;;;;;34.82;34.49;98949.34;5010368;28;1195;-66
2022/08/13 13:02:41;;;;;;;;;;;;;;;34.50;35.69;98959.69;5010447;28;824;-66
2022/08/13 13:05:07;;;;;;;;;;;;;;;34.45;35.99;98954.19;5010283;28;912;-65
2022/08/13 13:07:34;;;;;;;;;;;;;;;34.32;36.01;98955.28;4990745;28;808;-66
2022/08/13 13:10:02;;;;;;;;;;;;;;;33.71;37.50;98963.09;4974265;28;1981;-66
2022/08/13 13:12:29;;;;;;;;;;;;;;;33.26;37.87;98952.69;4990605;28;894;-66
2022/08/13 13:14:55;;;;;;;;;;;;;;;33.48;38.15;98953.88;4990551;28;804;-67
2022/08/13 13:17:22;;;;;;;;;;;;;;;33.14;38.69;98961.75;4990581;28;836;-66
2022/08/13 13:19:49;;;;;;;;;;;;;;;32.74;39.30;98958.84;4990506;28;868;-66
2022/08/13 13:22:16;;;;;;;;;;;;;;;32.51;39.88;98959.66;4990652;28;935;-66
2022/08/13 13:24:45;;;;;;;;;;;;;;;33.00;39.81;98962.56;4990582;28;1566;-66
2022/08/13 13:27:13;;;;;;;;;;;;;;;33.85;37.79;98952.09;4990260;28;879;-65
2022/08/13 13:29:41;;;;;;;;;;;;;;;34.63;36.34;98947.13;4974065;28;1403;-66
2022/08/13 13:32:10;;;;;;;;;;;;;;;34.39;36.48;98939.34;4990217;28;2012;-67
2022/08/13 13:34:37;;;;;;;;;;;;;;;33.68;37.62;98946.31;4990307;28;805;-66
2022/08/13 13:37:04;;;;;;;;;;;;;;;33.70;37.89;98943.63;4990109;28;862;-66
2022/08/13 13:39:32;;;;;;;;;;;;;;;34.21;36.82;98952.94;4990269;28;868;-66
2022/08/13 13:41:59;;;;;;;;;;;;;;;34.98;35.64;98952.81;5006596;28;996;-66
2022/08/13 13:44:26;;;;;;;;;;;;;;;35.56;34.68;98950.22;5006687;28;1204;-66
2022/08/13 13:46:53;;;;;;;;;;;;;;;35.99;34.12;98947.06;4990388;28;869;-66
2022/08/13 13:49:21;;;;;;;;;;;;;;;35.94;33.83;98946.00;4990413;28;821;-65
2022/08/13 13:51:48;;;;;;;;;;;;;;;35.85;33.80;98940.22;4990267;28;1960;-66
2022/08/13 13:54:15;;;;;;;;;;;;;;;35.53;34.29;98942.06;4990159;28;864;-66
2022/08/13 13:56:42;;;;;;;;;;;;;;;34.68;35.13;98939.63;4990199;28;816;-66
2022/08/13 13:59:09;;;;;;;;;;;;;;;34.64;35.45;98942.91;4990141;28;896;-66
2022/08/13 14:01:36;;;;;;;;;;;;;;;34.28;35.81;98929.16;4990050;28;934;-66
2022/08/13 14:04:03;;;;;;;;;;;;;;;34.86;35.51;98929.59;4990209;28;816;-66
2022/08/13 14:06:30;;;;;;;;;;;;;;;35.11;34.50;98928.69;5000915;28;1461;-66
2022/08/13 14:08:56;;;;;;;;;;;;;;;34.74;34.77;98940.13;5009785;28;848;-66
2022/08/13 14:11:23;;;;;;;;;;;;;;;34.45;35.18;98937.00;4993159;28;1914;-66
2022/08/13 14:13:51;;;;;;;;;;;;;;;34.01;35.90;98946.97;4993193;28;1403;-66
2022/08/13 14:16:18;;;;;;;;;;;;;;;34.10;35.97;98936.97;5009736;28;820;-66
2022/08/13 14:18:45;;;;;;;;;;;;;;;34.14;35.79;98932.34;5009667;28;938;-66
2022/08/13 14:21:13;;;;;;;;;;;;;;;34.79;35.24;98926.84;5009517;28;805;-66
2022/08/13 14:23:40;;;;;;;;;;;;;;;34.77;34.80;98925.31;5009384;28;960;-66
2022/08/13 14:26:08;;;;;;;;;;;;;;;33.92;35.98;98922.59;5009524;28;816;-66
2022/08/13 14:28:35;;;;;;;;;;;;;;;33.47;37.22;98933.06;5009344;28;881;-66
2022/08/13 14:31:02;;;;;;;;;;;;;;;33.18;38.36;98927.00;5009256;28;1949;-65
2022/08/13 14:33:30;;;;;;;;;;;;;;;32.39;39.22;98918.56;4992809;28;1359;-66
2022/08/13 14:35:57;;;;;;;;;;;;;;;31.78;40.43;98924.34;5009328;28;835;-66
2022/08/13 14:38:24;;;;;;;;;;;;;;;31.38;41.08;98925.63;5009239;28;817;-67
2022/08/13 14:40:51;;;;;;;;;;;;;;;31.20;41.68;98932.47;5009257;28;815;-66
2022/08/13 14:43:18;;;;;;;;;;;;;;;31.20;42.40;98932.47;5009183;28;848;-67
2022/08/13 14:45:47;;;;;;;;;;;;;;;31.50;42.04;98940.34;5009284;28;840;-66
2022/08/13 14:48:16;;;;;;;;;;;;;;;31.73;41.58;98943.97;5011283;28;856;-66
2022/08/13 14:50:45;;;;;;;;;;;;;;;32.04;41.39;98934.63;5012922;28;1890;-65
2022/08/13 14:53:14;;;;;;;;;;;;;;;32.31;40.43;98934.97;5012780;28;888;-66
2022/08/13 14:55:41;;;;;;;;;;;;;;;32.51;39.97;98931.06;5012669;28;968;-66
2022/08/13 14:58:08;;;;;;;;;;;;;;;32.57;39.49;98927.28;5012700;28;813;-65
2022/08/13 15:00:39;;;;;;;;;;;;;;;32.64;39.80;98932.19;5012625;28;1125;-65
2022/08/13 15:03:10;;;;;;;;;;;;;;;32.67;40.08;98931.81;5012522;28;1284;-66
2022/08/13 15:05:40;;;;;;;;;;;;;;;32.34;40.42;98928.84;4995987;28;1422;-65
2022/08/13 15:08:07;;;;;;;;;;;;;;;32.07;41.22;98930.59;5012632;28;844;-64
2022/08/13 15:10:34;;;;;;;;;;;;;;;32.01;41.04;98930.06;5012445;28;1977;-65
2022/08/13 15:13:01;;;;;;;;;;;;;;;32.04;41.28;98923.94;5012463;28;880;-66
2022/08/13 15:15:28;;;;;;;;;;;;;;;31.82;41.30;98930.44;5012212;28;1299;-65
2022/08/13 15:18:00;;;;;;;;;;;;;;;31.59;41.84;98924.72;5012382;28;871;-66
2022/08/13 15:20:31;;;;;;;;;;;;;;;31.74;42.04;98930.44;5012476;28;839;-66
2022/08/13 15:22:59;;;;;;;;;;;;;;;31.28;42.01;98919.75;5012768;28;857;-66
2022/08/13 15:25:27;;;;;;;;;;;;;;;30.84;43.27;98928.34;5014280;28;828;-67
2022/08/13 15:27:55;;;;;;;;;;;;;;;30.87;43.59;98915.81;5012945;28;903;-66
2022/08/13 15:30:23;;;;;;;;;;;;;;;30.77;43.25;98922.59;5012864;28;1940;-66
2022/08/13 15:32:52;;;;;;;;;;;;;;;30.68;43.78;98921.84;5014026;28;884;-67
2022/08/13 15:35:20;;;;;;;;;;;;;;;30.64;43.60;98921.44;5014247;28;821;-66
2022/08/13 15:37:48;;;;;;;;;;;;;;;30.64;44.00;98923.50;5014117;28;871;-66
2022/08/13 15:40:16;;;;;;;;;;;;;;;30.28;44.85;98922.22;5014014;28;1281;-65
2022/08/13 15:42:43;;;;;;;;;;;;;;;29.98;45.79;98927.69;5014728;28;867;-65
2022/08/13 15:45:12;;;;;;;;;;;;;;;29.92;46.30;98925.00;5014314;28;867;-66
2022/08/13 15:47:40;;;;;;;;;;;;;;;29.90;46.50;98924.81;5014150;28;1083;-65
2022/08/13 15:50:07;;;;;;;;;;;;;;;29.88;46.54;98933.91;5013853;28;2287;-65
2022/08/13 15:52:33;;;;;;;;;;;;;;;29.82;46.59;98938.97;5013798;28;906;-65
2022/08/13 15:55:01;;;;;;;;;;;;;;;29.75;46.73;98930.38;5013873;28;886;-66
2022/08/13 15:57:28;;;;;;;;;;;;;;;29.66;47.09;98934.44;5013813;28;823;-65
2022/08/13 15:59:55;;;;;;;;;;;;;;;29.56;47.58;98933.44;5012389;28;1121;-66
2022/08/13 16:02:24;;;;;;;;;;;;;;;29.46;47.60;98931.06;5013447;28;824;-65
2022/08/13 16:04:52;;;;;;;;;;;;;;;29.37;47.48;98928.69;5013526;28;1249;-65
2022/08/13 16:07:20;;;;;;;;;;;;;;;29.21;47.77;98938.41;5048643;28;1281;-65
2022/08/13 16:09:47;;;;;;;;;;;;;;;28.98;48.47;98932.47;5053249;28;863;-64
2022/08/13 16:12:16;;;;;;;;;;;;;;;28.96;47.99;98943.63;5052970;28;1986;-65
2022/08/13 16:14:45;;;;;;;;;;;;;;;28.83;48.25;98944.44;5053088;28;867;-65
2022/08/13 16:17:12;;;;;;;;;;;;;;;28.61;48.73;98940.72;5052961;28;876;-65
2022/08/13 16:19:41;;;;;;;;;;;;;;;28.48;49.02;98940.72;5052967;28;845;-65
2022/08/13 16:22:08;;;;;;;;;;;;;;;28.34;49.55;98939.22;5052965;28;919;-64